KAMW/AMW METAR and TAF weather

Enter ICAO airport designator
Station Type Date Time Source
KAMW METAR 2020/07/06 19:53 UTC NOAA

KAMW 061953Z AUTO 21005KT 10SM CLR 32/20 A2999 RMK AO2 SLP146 T03170200


Station Type Date Time Source
KAMW Decoded METAR 2020/07/06 19:53 UTC NOAA

AMES MUNICIPAL AIRPORT, IA, United States (KAMW) 41-59N 93-37W 279M
Jul 06, 2020 - 03:53 PM EDT / 2020.07.06 1953 UTC
Wind: from the SSW (210 degrees) at 6 MPH (5 KT):0
Visibility: 10 mile(s):0
Sky conditions: clear
Temperature: 89.1 F (31.7 C)
Dew Point: 68.0 F (20.0 C)
Relative Humidity: 49%
Pressure (altimeter): 29.99 in. Hg (1015 hPa)
ob: KAMW 061953Z AUTO 21005KT 10SM CLR 32/20 A2999 RMK AO2 SLP146 T03170200
cycle: 20

Station Type Date Time Source
KAMW TAF UTC NOAA

Error!

Example: see airport list